Time;durP1;ratioP1;P1;durP2;ratioP2;P2;SDS_P1;SDS_P2;PMS_P1;PMS_P2;Temp;Humidity;BMP_temperature;BMP_pressure;BME280_temperature;BME280_humidity;BME280_pressure;Samples;Min_cycle;Max_cycle;Signal;HPM_P1;HPM_P2
2022/12/09 00:00:16;;;;;;;5.00;3.40;;;1.50;97.30;;;;;;5010902;28;20181;-91
2022/12/09 00:02:41;;;;;;;4.00;2.63;;;1.50;97.30;;;;;;5010860;28;20239;-90
2022/12/09 00:05:07;;;;;;;3.10;2.73;;;1.50;97.30;;;;;;4994859;28;20555;-91
2022/12/09 00:07:36;;;;;;;14.43;2.37;;;1.50;97.30;;;;;;4995136;28;20228;-91
2022/12/09 00:10:03;;;;;;;11.67;6.03;;;1.50;97.30;;;;;;4994795;28;20428;-90
2022/12/09 00:12:28;;;;;;;4.60;2.50;;;1.50;97.30;;;;;;5010966;28;20451;-90
2022/12/09 00:14:54;;;;;;;2.90;2.67;;;1.50;97.30;;;;;;4994956;28;20424;-90
2022/12/09 00:17:19;;;;;;;3.47;2.70;;;1.50;97.30;;;;;;4995577;28;20196;-91
2022/12/09 00:19:46;;;;;;;6.43;3.43;;;1.50;97.30;;;;;;4992766;28;20297;-90
2022/12/09 00:22:11;;;;;;;3.97;3.77;;;1.50;97.30;;;;;;4993178;28;20210;-90
2022/12/09 00:24:37;;;;;;;7.83;3.03;;;1.50;97.30;;;;;;5009243;28;20462;-91
2022/12/09 00:27:02;;;;;;;3.60;2.93;;;1.50;97.30;;;;;;5008444;28;20189;-90
2022/12/09 00:29:28;;;;;;;6.73;4.90;;;1.60;97.30;;;;;;5008406;28;20188;-90
2022/12/09 00:31:53;;;;;;;5.80;3.20;;;1.60;97.30;;;;;;4993734;28;20185;-91
2022/12/09 00:34:19;;;;;;;4.93;3.20;;;1.60;97.30;;;;;;4994170;28;20211;-91
2022/12/09 00:36:44;;;;;;;3.53;2.67;;;1.60;97.30;;;;;;5011566;28;20220;-91
2022/12/09 00:39:11;;;;;;;5.20;3.50;;;1.60;97.30;;;;;;4994048;28;20636;-92
2022/12/09 00:41:36;;;;;;;3.33;2.97;;;1.60;97.30;;;;;;5010264;28;20183;-91
2022/12/09 00:44:03;;;;;;;15.10;4.37;;;1.60;97.30;;;;;;5010684;28;20534;-91
2022/12/09 00:46:29;;;;;;;6.27;2.27;;;1.60;97.30;;;;;;4991191;28;20695;-91
2022/12/09 00:48:54;;;;;;;5.03;2.73;;;1.60;97.30;;;;;;5006077;28;20603;-90
2022/12/09 00:51:22;;;;;;;8.43;2.67;;;1.60;97.30;;;;;;4988662;28;20181;-91
2022/12/09 00:53:52;;;;;;;3.33;2.70;;;1.60;97.30;;;;;;5011113;28;20197;-91
2022/12/09 00:56:17;;;;;;;4.87;4.60;;;1.60;97.30;;;;;;4992856;28;20460;-91
2022/12/09 00:58:43;;;;;;;4.10;3.03;;;1.60;97.30;;;;;;4988260;28;20429;-90
2022/12/09 01:01:08;;;;;;;4.87;2.63;;;1.60;97.30;;;;;;5012017;28;20177;-90
2022/12/09 01:03:34;;;;;;;2.30;2.10;;;1.60;97.30;;;;;;5007243;28;20221;-91
2022/12/09 01:06:00;;;;;;;2.63;2.43;;;1.60;97.30;;;;;;5007218;28;20216;-92
2022/12/09 01:08:32;;;;;;;5.97;3.50;;;1.60;97.30;;;;;;5005264;28;20687;-91
2022/12/09 01:14:10;;;;;;;5.63;2.50;;;1.60;97.30;;;;;;4949964;28;20446;-91
2022/12/09 01:16:41;;;;;;;5.30;3.53;;;1.70;97.30;;;;;;4950976;28;20501;-91
2022/12/09 01:19:20;;;;;;;7.47;4.00;;;1.70;97.30;;;;;;4956410;28;20425;-91
2022/12/09 01:21:54;;;;;;;2.53;2.33;;;1.60;97.30;;;;;;4964738;28;20458;-91
2022/12/09 01:24:50;;;;;;;3.23;3.10;;;1.60;97.30;;;;;;4961570;28;20489;-90
2022/12/09 01:27:21;;;;;;;12.33;4.53;;;1.60;97.30;;;;;;4946708;28;20426;-90
2022/12/09 01:29:50;;;;;;;5.37;3.33;;;1.60;97.30;;;;;;4942397;29;20423;-90
2022/12/09 01:32:31;;;;;;;3.00;2.80;;;1.70;97.30;;;;;;4978765;28;20445;-91
2022/12/09 01:35:21;;;;;;;2.53;2.33;;;1.70;97.30;;;;;;5006691;28;20429;-90
2022/12/09 01:37:50;;;;;;;28.27;5.00;;;1.70;97.30;;;;;;5007311;28;20429;-91
2022/12/09 01:40:21;;;;;;;2.57;2.37;;;1.70;97.30;;;;;;5006609;28;20939;-91
2022/12/09 01:43:51;;;;;;;3.50;2.77;;;1.70;97.30;;;;;;5003867;28;20445;-91
2022/12/09 01:50:00;;;;;;;7.57;4.03;;;1.70;97.30;;;;;;4764859;30;20489;-91
2022/12/09 01:52:39;;;;;;;5.80;2.40;;;1.70;97.30;;;;;;4801181;29;20433;-90
2022/12/09 01:55:20;;;;;;;6.43;3.90;;;1.70;97.30;;;;;;4842767;29;20431;-91
2022/12/09 01:58:01;;;;;;;3.40;2.03;;;1.70;97.30;;;;;;4858730;29;20823;-91
2022/12/09 02:00:41;;;;;;;6.07;3.97;;;1.70;97.30;;;;;;4859885;29;20430;-91
2022/12/09 02:03:30;;;;;;;4.87;2.00;;;1.70;97.30;;;;;;4849992;29;20485;-90
2022/12/09 02:06:30;;;;;;;2.53;2.33;;;1.80;97.30;;;;;;4859809;29;20546;-91
2022/12/09 02:09:11;;;;;;;4.93;3.33;;;1.70;97.30;;;;;;4854036;29;20427;-90
2022/12/09 02:11:49;;;;;;;2.90;1.87;;;1.80;97.30;;;;;;4876887;29;21089;-91
2022/12/09 02:14:24;;;;;;;4.43;4.20;;;1.80;97.30;;;;;;4960888;28;20884;-91
2022/12/09 02:17:14;;;;;;;2.70;2.27;;;1.70;97.30;;;;;;5006259;28;20421;-88
2022/12/09 02:20:05;;;;;;;4.07;2.50;;;1.80;97.30;;;;;;5003845;28;20466;-89
2022/12/09 02:22:38;;;;;;;2.40;2.10;;;1.80;97.30;;;;;;5010494;28;20544;-90
2022/12/09 02:25:23;;;;;;;10.70;4.10;;;1.80;97.30;;;;;;5009648;28;20882;-91
2022/12/09 02:28:30;;;;;;;4.07;3.13;;;1.70;97.30;;;;;;4999277;28;20417;-91
2022/12/09 02:31:33;;;;;;;4.80;3.90;;;1.80;97.30;;;;;;4990118;28;20440;-92
2022/12/09 02:34:16;;;;;;;2.83;1.73;;;1.80;97.30;;;;;;4993352;28;21185;-92
2022/12/09 02:36:58;;;;;;;5.93;3.23;;;1.70;97.30;;;;;;4981315;28;20412;-91
2022/12/09 02:39:41;;;;;;;7.57;4.53;;;1.70;97.30;;;;;;4992713;28;20436;-89
2022/12/09 02:42:09;;;;;;;3.03;2.83;;;1.60;97.30;;;;;;5002766;28;20475;-91
2022/12/09 02:44:36;;;;;;;5.23;2.63;;;1.60;97.30;;;;;;5009287;28;20452;-91
2022/12/09 02:47:05;;;;;;;2.80;2.60;;;1.60;97.30;;;;;;4999102;28;20441;-91
2022/12/09 02:49:33;;;;;;;3.40;1.83;;;1.60;97.30;;;;;;4994576;28;20453;-91
2022/12/09 02:52:00;;;;;;;8.27;3.37;;;1.60;97.30;;;;;;4998054;28;20414;-91
2022/12/09 02:54:28;;;;;;;5.87;5.37;;;1.60;97.30;;;;;;5007424;28;20455;-92
2022/12/09 02:56:59;;;;;;;3.70;3.00;;;1.60;97.30;;;;;;4988960;28;20425;-90
2022/12/09 02:59:24;;;;;;;3.90;2.50;;;1.60;97.30;;;;;;5008621;28;20428;-91
2022/12/09 03:02:09;;;;;;;7.07;4.43;;;1.60;97.30;;;;;;5008703;28;21016;-91
2022/12/09 03:07:25;;;;;;;3.80;3.47;;;1.70;97.30;;;;;;5026694;28;20997;-89
2022/12/09 03:10:05;;;;;;;5.10;3.43;;;1.60;97.30;;;;;;5014800;28;20407;-89
2022/12/09 03:12:34;;;;;;;5.90;3.67;;;1.60;97.30;;;;;;5008377;28;20411;-89
2022/12/09 03:15:02;;;;;;;17.37;5.60;;;1.60;97.30;;;;;;5028254;28;21033;-89
2022/12/09 03:17:50;;;;;;;5.60;3.87;;;1.60;97.30;;;;;;5009637;28;20527;-89
2022/12/09 03:21:12;;;;;;;3.57;3.10;;;1.60;97.30;;;;;;5015559;28;20965;-86
2022/12/09 03:23:42;;;;;;;6.13;4.57;;;1.60;97.30;;;;;;5018635;28;20447;-88
2022/12/09 03:26:15;;;;;;;5.27;2.07;;;1.50;97.30;;;;;;5014944;28;20458;-85
2022/12/09 03:31:39;;;;;;;5.43;2.63;;;1.50;97.30;;;;;;5021053;28;20897;-89
2022/12/09 03:34:30;;;;;;;28.77;6.30;;;1.50;97.30;;;;;;5015931;28;20557;-89
2022/12/09 03:37:30;;;;;;;5.40;4.33;;;1.50;97.30;;;;;;5015337;28;20426;-87
2022/12/09 03:40:20;;;;;;;3.00;2.80;;;1.50;97.30;;;;;;5002656;28;20411;-90
2022/12/09 03:43:51;;;;;;;12.93;9.93;;;1.50;97.30;;;;;;5016505;28;20752;-85
2022/12/09 03:46:52;;;;;;;4.07;3.63;;;1.60;97.30;;;;;;4920628;29;20438;-87
2022/12/09 03:50:10;;;;;;;14.30;4.20;;;1.50;97.30;;;;;;4879278;29;20430;-85
2022/12/09 03:53:01;;;;;;;4.10;3.87;;;1.50;97.30;;;;;;4897137;29;20448;-86
2022/12/09 03:56:02;;;;;;;3.47;2.87;;;1.50;97.30;;;;;;4937276;29;20427;-86
2022/12/09 03:58:32;;;;;;;4.10;3.20;;;1.50;97.30;;;;;;4924333;29;20435;-86
2022/12/09 04:01:00;;;;;;;6.47;4.57;;;1.50;97.30;;;;;;4998715;28;20444;-90
2022/12/09 04:03:28;;;;;;;7.67;4.97;;;1.50;97.30;;;;;;5008676;28;20439;-85
2022/12/09 04:06:07;;;;;;;3.33;2.93;;;1.50;97.30;;;;;;5014684;28;20872;-89
2022/12/09 04:08:37;;;;;;;4.80;3.00;;;1.50;97.30;;;;;;5015263;28;20427;-90
2022/12/09 04:11:08;;;;;;;5.50;3.20;;;1.40;97.30;;;;;;5033356;28;20415;-89
2022/12/09 04:13:41;;;;;;;4.60;4.30;;;1.40;97.30;;;;;;5014654;28;20447;-88
2022/12/09 04:16:09;;;;;;;8.83;5.10;;;1.40;97.30;;;;;;5024227;28;20423;-86
2022/12/09 04:18:48;;;;;;;2.40;1.60;;;1.40;97.30;;;;;;5016560;28;20415;-88
2022/12/09 04:21:19;;;;;;;4.70;2.93;;;1.40;97.30;;;;;;5015691;28;20430;-88
2022/12/09 04:23:58;;;;;;;5.37;3.23;;;1.40;97.30;;;;;;5002166;28;20447;-87
2022/12/09 04:26:31;;;;;;;3.00;2.80;;;1.30;97.30;;;;;;5015849;28;20430;-87
2022/12/09 04:29:00;;;;;;;7.83;3.13;;;1.30;97.30;;;;;;5007505;28;20486;-86
2022/12/09 04:31:28;;;;;;;2.27;2.07;;;1.30;97.30;;;;;;4997062;28;20934;-90
2022/12/09 04:34:02;;;;;;;3.00;2.10;;;1.30;97.30;;;;;;5005974;28;20439;-90
2022/12/09 04:36:28;;;;;;;11.10;3.27;;;1.20;97.30;;;;;;5014453;28;20478;-87
2022/12/09 04:39:01;;;;;;;1.77;1.67;;;1.20;97.30;;;;;;5013691;28;20446;-88
2022/12/09 04:42:02;;;;;;;2.90;2.60;;;1.10;97.30;;;;;;5007662;28;20437;-90
2022/12/09 04:44:51;;;;;;;2.23;2.07;;;1.10;97.30;;;;;;5027945;28;20844;-91
2022/12/09 04:47:20;;;;;;;5.20;3.97;;;1.10;97.30;;;;;;5008906;28;20423;-86
2022/12/09 04:49:51;;;;;;;3.10;1.97;;;1.10;97.30;;;;;;5032465;28;20414;-90
2022/12/09 04:52:40;;;;;;;8.20;3.97;;;1.10;97.30;;;;;;5015140;28;20435;-90
2022/12/09 04:55:31;;;;;;;3.40;2.87;;;1.10;97.30;;;;;;5006151;28;20439;-90
2022/12/09 04:58:00;;;;;;;2.90;2.50;;;1.10;97.30;;;;;;4998621;28;20419;-90
2022/12/09 05:00:32;;;;;;;4.67;3.53;;;1.20;97.30;;;;;;5018282;28;20422;-90
2022/12/09 05:02:58;;;;;;;5.13;2.53;;;1.20;97.30;;;;;;5022690;28;20547;-90
2022/12/09 05:05:24;;;;;;;2.13;1.97;;;1.20;97.30;;;;;;5016728;28;20899;-89
2022/12/09 05:07:49;;;;;;;8.43;3.20;;;1.20;97.30;;;;;;5017817;28;20514;-90
2022/12/09 05:10:15;;;;;;;1.60;1.50;;;1.20;97.30;;;;;;5017307;28;20230;-92
2022/12/09 05:12:40;;;;;;;2.77;2.57;;;1.20;97.30;;;;;;5016898;28;20275;-91
2022/12/09 05:15:06;;;;;;;3.00;2.80;;;1.10;97.30;;;;;;5016104;28;20287;-90
2022/12/09 05:17:32;;;;;;;2.90;2.63;;;1.10;97.30;;;;;;5015945;28;20212;-90
2022/12/09 05:19:57;;;;;;;2.90;2.03;;;1.20;97.30;;;;;;5016081;28;20504;-91
2022/12/09 05:22:23;;;;;;;5.63;2.80;;;1.20;97.30;;;;;;5034328;28;20696;-90
2022/12/09 05:24:48;;;;;;;6.20;3.33;;;1.20;97.30;;;;;;5016528;28;20292;-90
2022/12/09 05:27:14;;;;;;;4.93;2.73;;;1.20;97.30;;;;;;5009016;28;20718;-90
2022/12/09 05:29:39;;;;;;;6.10;2.13;;;1.20;97.30;;;;;;5011028;28;20198;-91
2022/12/09 05:32:06;;;;;;;2.40;2.20;;;1.30;97.30;;;;;;5016689;28;20219;-91
2022/12/09 05:34:31;;;;;;;5.10;4.80;;;1.30;97.30;;;;;;5015873;28;20196;-91
2022/12/09 05:36:57;;;;;;;5.90;3.20;;;1.30;97.30;;;;;;5015528;28;20446;-91
2022/12/09 05:39:22;;;;;;;5.27;2.73;;;1.30;97.30;;;;;;5021388;28;20189;-90
2022/12/09 05:41:48;;;;;;;3.30;2.20;;;1.30;97.30;;;;;;5014841;28;20183;-91
2022/12/09 05:44:14;;;;;;;4.00;3.67;;;1.30;97.30;;;;;;5015156;28;20243;-91
2022/12/09 05:46:41;;;;;;;2.50;2.30;;;1.30;97.30;;;;;;5024597;28;21567;-91
2022/12/09 05:49:14;;;;;;;2.37;2.20;;;1.30;97.30;;;;;;5027097;28;21035;-91
2022/12/09 05:51:52;;;;;;;3.67;2.80;;;1.40;97.30;;;;;;5026098;28;20214;-91
2022/12/09 05:54:18;;;;;;;1.83;1.37;;;1.40;97.30;;;;;;5025400;28;20983;-91
2022/12/09 05:56:49;;;;;;;1.83;1.73;;;1.40;97.30;;;;;;5029295;28;20417;-91
2022/12/09 05:59:26;;;;;;;2.80;2.07;;;1.40;97.30;;;;;;5022891;28;20273;-91
2022/12/09 06:01:53;;;;;;;6.23;3.30;;;1.40;97.30;;;;;;5025240;28;20429;-91
2022/12/09 06:04:18;;;;;;;5.47;2.70;;;1.40;97.30;;;;;;5010945;28;20464;-91
2022/12/09 06:06:44;;;;;;;2.83;2.70;;;1.40;97.30;;;;;;5015502;28;20463;-91
2022/12/09 06:09:10;;;;;;;3.67;3.47;;;1.40;97.30;;;;;;5015568;28;20189;-90
2022/12/09 06:11:37;;;;;;;9.23;3.20;;;1.30;97.30;;;;;;5015660;28;20180;-91
2022/12/09 06:14:03;;;;;;;5.73;3.10;;;1.30;97.30;;;;;;5002147;28;20423;-91
2022/12/09 06:16:29;;;;;;;4.73;2.13;;;1.30;97.30;;;;;;5015733;28;20427;-91
2022/12/09 06:18:55;;;;;;;3.50;2.53;;;1.30;97.30;;;;;;5019527;28;20551;-91
2022/12/09 06:21:21;;;;;;;3.07;2.07;;;1.20;97.30;;;;;;5030214;28;20469;-90
2022/12/09 06:23:48;;;;;;;4.00;2.30;;;1.20;97.30;;;;;;5033108;28;20451;-90
2022/12/09 06:26:15;;;;;;;2.10;1.87;;;1.30;97.30;;;;;;5022845;28;20492;-90
2022/12/09 06:28:41;;;;;;;5.03;2.80;;;1.30;97.30;;;;;;5021534;28;20447;-90
2022/12/09 06:31:06;;;;;;;2.37;2.17;;;1.30;97.30;;;;;;5022572;28;20438;-88
2022/12/09 06:33:32;;;;;;;2.50;2.30;;;1.40;97.30;;;;;;5024603;28;20705;-90
2022/12/09 06:36:02;;;;;;;4.10;2.97;;;1.40;97.30;;;;;;5024381;28;20205;-90
2022/12/09 06:38:27;;;;;;;3.10;2.40;;;1.40;97.30;;;;;;5020660;28;20184;-90
2022/12/09 06:41:05;;;;;;;11.73;4.80;;;1.40;97.30;;;;;;5028665;28;20469;-90
2022/12/09 06:43:30;;;;;;;2.70;2.43;;;1.40;97.30;;;;;;5018299;28;20977;-89
2022/12/09 06:45:59;;;;;;;3.67;3.37;;;1.50;97.30;;;;;;5015934;28;20469;-89
2022/12/09 06:48:48;;;;;;;6.00;2.27;;;1.50;97.30;;;;;;5019401;28;20177;-87
2022/12/09 06:51:15;;;;;;;1.47;1.37;;;1.50;97.30;;;;;;5001891;28;20544;-85
2022/12/09 06:53:40;;;;;;;2.30;1.63;;;1.50;97.30;;;;;;5012056;28;21012;-88
2022/12/09 06:56:08;;;;;;;2.50;2.00;;;1.50;97.30;;;;;;5015819;28;20435;-89
2022/12/09 06:58:34;;;;;;;10.20;2.67;;;1.50;97.30;;;;;;5011505;28;20184;-88
2022/12/09 07:01:12;;;;;;;15.30;2.73;;;1.50;97.30;;;;;;5011657;28;20444;-88
2022/12/09 07:03:45;;;;;;;8.90;4.50;;;1.50;97.30;;;;;;5013210;28;20773;-87
2022/12/09 07:06:34;;;;;;;2.80;2.40;;;1.50;97.30;;;;;;5014142;28;20483;-87
2022/12/09 07:09:03;;;;;;;4.93;3.10;;;1.50;97.30;;;;;;5014205;28;20474;-89
2022/12/09 07:11:29;;;;;;;2.43;2.23;;;1.50;97.30;;;;;;5027086;28;20420;-89
2022/12/09 07:13:54;;;;;;;5.80;3.57;;;1.50;97.30;;;;;;5015255;28;20501;-88
2022/12/09 07:16:20;;;;;;;1.50;1.40;;;1.50;97.30;;;;;;5014733;28;20557;-89
2022/12/09 07:18:45;;;;;;;4.10;1.97;;;1.50;97.30;;;;;;5012811;28;20183;-88
2022/12/09 07:21:14;;;;;;;4.07;3.87;;;1.50;97.30;;;;;;5006255;28;20217;-87
2022/12/09 07:23:40;;;;;;;2.50;2.20;;;1.50;97.30;;;;;;5012030;28;20315;-88
2022/12/09 07:26:06;;;;;;;7.70;2.50;;;1.50;97.30;;;;;;5007298;28;20456;-88
2022/12/09 07:28:36;;;;;;;2.30;2.13;;;1.50;97.30;;;;;;5012670;28;20690;-89
2022/12/09 07:31:02;;;;;;;2.00;1.83;;;1.50;97.30;;;;;;5020565;28;20305;-88
2022/12/09 07:33:28;;;;;;;2.47;2.27;;;1.50;97.30;;;;;;5021612;28;20448;-89
2022/12/09 07:35:55;;;;;;;5.23;3.73;;;1.50;97.30;;;;;;5023221;28;20602;-89
2022/12/09 07:38:22;;;;;;;5.73;3.50;;;1.50;97.30;;;;;;5019879;28;20843;-89
2022/12/09 07:40:47;;;;;;;2.80;1.90;;;1.40;97.30;;;;;;5016168;28;20493;-90
2022/12/09 07:43:13;;;;;;;1.83;1.50;;;1.40;97.30;;;;;;5015609;28;20427;-90
2022/12/09 07:45:39;;;;;;;2.30;2.10;;;1.40;97.30;;;;;;5003644;28;20205;-89
2022/12/09 07:48:07;;;;;;;2.23;2.03;;;1.50;97.30;;;;;;5019209;28;20171;-89
2022/12/09 07:50:33;;;;;;;7.43;2.27;;;1.50;97.30;;;;;;5015305;28;20415;-89
2022/12/09 07:52:58;;;;;;;3.90;3.53;;;1.50;97.30;;;;;;5016316;28;20415;-89
2022/12/09 07:55:24;;;;;;;4.10;2.80;;;1.50;97.30;;;;;;5021425;28;20426;-89
2022/12/09 07:57:49;;;;;;;2.67;2.30;;;1.50;97.30;;;;;;5022948;28;20318;-89
2022/12/09 08:00:15;;;;;;;3.23;2.17;;;1.50;97.30;;;;;;5028965;28;20237;-89
2022/12/09 08:02:41;;;;;;;1.97;1.87;;;1.50;97.30;;;;;;5016031;28;20215;-89
2022/12/09 08:05:07;;;;;;;1.70;1.60;;;1.50;97.30;;;;;;5012266;28;21006;-89
2022/12/09 08:07:32;;;;;;;4.37;2.20;;;1.50;97.30;;;;;;5013910;28;20300;-89
2022/12/09 08:09:58;;;;;;;3.03;2.73;;;1.50;97.30;;;;;;5011714;28;20416;-89
2022/12/09 08:12:24;;;;;;;2.40;2.30;;;1.60;97.30;;;;;;5009285;28;20173;-90
2022/12/09 08:14:49;;;;;;;1.40;1.30;;;1.60;97.30;;;;;;4996058;28;20369;-89
2022/12/09 08:17:15;;;;;;;3.70;3.43;;;1.60;97.30;;;;;;4998197;28;20190;-89
2022/12/09 08:19:41;;;;;;;1.40;1.30;;;1.60;97.30;;;;;;5002439;28;20191;-89
2022/12/09 08:22:07;;;;;;;1.30;1.20;;;1.60;97.30;;;;;;5002021;28;20479;-90
2022/12/09 08:24:32;;;;;;;6.70;2.60;;;1.60;97.30;;;;;;5002893;28;20256;-89
2022/12/09 08:26:58;;;;;;;1.70;1.60;;;1.60;97.30;;;;;;4996719;28;20188;-90
2022/12/09 08:29:25;;;;;;;3.23;1.67;;;1.60;97.30;;;;;;5004517;28;20185;-91
2022/12/09 08:31:50;;;;;;;1.80;1.73;;;1.50;97.30;;;;;;4996456;28;20466;-89
2022/12/09 08:34:16;;;;;;;3.73;3.53;;;1.60;97.30;;;;;;5013372;28;20440;-89
2022/12/09 08:36:42;;;;;;;2.90;2.47;;;1.60;97.30;;;;;;5001816;28;20179;-89
2022/12/09 08:39:09;;;;;;;7.93;3.03;;;1.60;97.30;;;;;;5002687;28;20585;-89
2022/12/09 08:41:36;;;;;;;3.73;3.10;;;1.60;97.30;;;;;;5013805;28;20415;-90
2022/12/09 08:44:10;;;;;;;4.63;4.03;;;1.60;97.30;;;;;;5031914;28;20762;-89
2022/12/09 08:46:37;;;;;;;2.53;2.33;;;1.60;97.30;;;;;;4983874;28;20566;-89
2022/12/09 08:49:04;;;;;;;1.77;1.67;;;1.60;97.30;;;;;;5004290;28;20412;-89
2022/12/09 08:51:30;;;;;;;1.60;1.50;;;1.70;97.30;;;;;;4995159;28;20495;-91
2022/12/09 08:53:57;;;;;;;7.47;1.93;;;1.70;97.30;;;;;;5005826;28;20443;-90
2022/12/09 08:56:23;;;;;;;2.63;1.40;;;1.70;97.30;;;;;;4999773;28;20412;-89
2022/12/09 08:58:49;;;;;;;2.23;2.10;;;1.70;97.30;;;;;;4998933;28;20765;-90
2022/12/09 09:01:17;;;;;;;7.13;2.73;;;1.70;97.30;;;;;;4995351;28;20408;-89
2022/12/09 09:03:46;;;;;;;2.27;2.10;;;1.70;97.30;;;;;;5020551;23;20228;-88
2022/12/09 09:06:41;;;;;;;4.57;2.70;;;1.80;97.30;;;;;;5011403;28;20473;-88
2022/12/09 09:09:02;;;;;;;18.87;5.80;;;1.80;97.30;;;;;;5021544;28;20462;-88
2022/12/09 09:12:02;;;;;;;1.60;1.50;;;1.80;97.30;;;;;;5028598;28;20574;-87
2022/12/09 09:14:31;;;;;;;3.10;1.70;;;1.80;97.30;;;;;;4938419;29;21004;-89
2022/12/09 09:17:11;;;;;;;5.67;3.93;;;1.80;97.30;;;;;;4937055;29;20513;-88
2022/12/09 09:19:42;;;;;;;7.20;2.73;;;1.80;97.30;;;;;;4936057;29;21085;-88
2022/12/09 09:22:51;;;;;;;3.27;1.50;;;1.80;97.30;;;;;;4935752;29;20463;-89
2022/12/09 09:25:32;;;;;;;1.07;0.97;;;1.80;97.30;;;;;;4918710;29;20471;-88
2022/12/09 09:31:23;;;;;;;;;;;;;;;;;;;;;
2022/12/09 10:28:41;;;;;;;5.07;2.90;;;2.30;97.30;;;;;;5059034;28;20497;-93
2022/12/09 10:31:09;;;;;;;7.50;1.70;;;2.40;97.30;;;;;;5042723;28;20932;-91
2022/12/09 10:38:10;;;;;;;11.23;5.43;;;2.40;97.30;;;;;;5062515;28;20776;-91
2022/12/09 10:43:33;;;;;;;4.37;4.07;;;2.40;97.30;;;;;;4962517;28;20514;-93
2022/12/09 10:44:29;;;;;;;3.20;1.40;;;2.40;97.30;;;;;;4983508;23;20547;-92
2022/12/09 10:47:22;;;;;;;4.53;4.23;;;2.30;97.30;;;;;;5059829;28;20508;-92
2022/12/09 10:49:53;;;;;;;4.97;3.17;;;2.20;97.30;;;;;;5038767;28;20515;-92
2022/12/09 10:52:39;;;;;;;2.53;2.33;;;2.20;97.30;;;;;;5027883;28;20414;-92
2022/12/09 10:59:32;;;;;;;2.77;2.23;;;2.20;97.30;;;;;;4957071;29;20411;-90
2022/12/09 11:02:11;;;;;;;6.43;2.93;;;2.20;97.30;;;;;;4940774;29;20601;-90
2022/12/09 11:04:52;;;;;;;7.40;4.60;;;2.20;97.30;;;;;;4952204;29;20504;-91
2022/12/09 11:07:32;;;;;;;6.37;4.27;;;2.20;97.30;;;;;;4929605;29;20512;-92
2022/12/09 11:10:01;;;;;;;6.93;4.20;;;2.20;97.30;;;;;;4955929;29;20545;-92
2022/12/09 11:13:02;;;;;;;3.50;2.97;;;2.20;97.30;;;;;;4938877;29;20434;-90
2022/12/09 11:16:11;;;;;;;4.00;3.20;;;2.20;97.30;;;;;;5047968;28;20770;-90
2022/12/09 11:18:53;;;;;;;5.20;2.90;;;2.20;97.30;;;;;;5026178;28;20429;-91
2022/12/09 11:21:41;;;;;;;1.87;1.77;;;2.30;97.30;;;;;;5036596;28;20453;-91
2022/12/09 11:24:34;;;;;;;4.33;2.10;;;2.30;97.30;;;;;;5036964;28;20446;-90
2022/12/09 11:27:42;;;;;;;2.50;2.30;;;2.30;97.30;;;;;;5025585;28;20977;-91
2022/12/09 11:31:02;;;;;;;1.97;1.87;;;2.30;97.30;;;;;;5034301;28;20434;-90
2022/12/09 11:36:53;;;;;;;1.40;1.30;;;2.40;97.30;;;;;;5065400;23;20485;-91
2022/12/09 11:40:03;;;;;;;1.77;1.67;;;2.30;97.30;;;;;;4990575;28;20480;-91
2022/12/09 11:43:03;;;;;;;8.30;3.57;;;2.30;97.30;;;;;;5034821;28;20450;-91
2022/12/09 11:50:52;;;;;;;9.57;4.13;;;2.40;97.30;;;;;;5053175;28;20485;-92
2022/12/09 11:54:02;;;;;;;3.37;2.27;;;2.40;97.30;;;;;;5036721;28;20410;-92
2022/12/09 11:56:42;;;;;;;8.67;4.70;;;2.40;97.30;;;;;;5017761;28;20423;-91
2022/12/09 11:59:52;;;;;;;14.33;2.60;;;2.40;97.30;;;;;;5034586;28;20926;-92
2022/12/09 12:02:39;;;;;;;6.10;3.57;;;2.40;97.30;;;;;;5023805;28;20446;-92
2022/12/09 12:08:50;;;;;;;2.80;2.50;;;2.30;97.30;;;;;;5027232;28;20510;-92
2022/12/09 12:11:32;;;;;;;3.47;3.27;;;2.30;97.30;;;;;;5036062;28;20421;-91
2022/12/09 12:17:42;;;;;;;1.73;1.60;;;2.30;97.30;;;;;;5022130;28;20444;-91
2022/12/09 12:20:12;;;;;;;2.80;2.30;;;2.30;97.30;;;;;;5001964;28;20419;-91
2022/12/09 12:23:12;;;;;;;3.63;2.80;;;2.30;97.30;;;;;;5027436;28;20426;-91
2022/12/09 12:26:11;;;;;;;3.80;1.53;;;2.20;97.30;;;;;;5015624;28;20937;-90
2022/12/09 12:29:10;;;;;;;3.70;3.53;;;2.30;97.30;;;;;;5015372;28;20415;-91
2022/12/09 12:32:06;;;;;;;9.93;2.63;;;2.30;97.30;;;;;;5022487;28;20833;-90
2022/12/09 12:34:52;;;;;;;11.63;4.93;;;2.20;97.30;;;;;;5023247;28;20442;-90
2022/12/09 12:37:54;;;;;;;10.63;3.60;;;2.30;97.30;;;;;;5018234;28;20867;-90
2022/12/09 12:40:35;;;;;;;8.43;3.23;;;2.30;97.30;;;;;;5022617;28;20415;-90
2022/12/09 12:46:37;;;;;;;2.73;1.73;;;2.30;97.30;;;;;;5043640;28;20456;-91
2022/12/09 12:49:46;;;;;;;9.40;2.63;;;2.20;97.30;;;;;;5021919;28;21049;-90
2022/12/09 12:52:54;;;;;;;6.67;3.67;;;2.20;97.30;;;;;;5035107;28;20929;-93
2022/12/09 12:55:59;;;;;;;8.47;3.53;;;2.20;97.30;;;;;;5033927;28;20815;-90
2022/12/09 12:58:27;;;;;;;4.70;3.73;;;2.20;97.30;;;;;;5029433;28;20957;-92
2022/12/09 13:01:31;;;;;;;3.83;3.20;;;2.20;97.30;;;;;;5016284;28;20473;-91
2022/12/09 13:04:01;;;;;;;6.60;6.20;;;2.20;97.30;;;;;;5014869;28;20435;-91
2022/12/09 13:06:37;;;;;;;4.00;3.10;;;2.20;97.30;;;;;;5015654;28;20467;-92
2022/12/09 13:09:11;;;;;;;6.43;3.40;;;2.20;97.30;;;;;;5014757;28;20415;-90
2022/12/09 13:11:54;;;;;;;6.00;2.97;;;2.20;97.30;;;;;;5026979;28;20446;-91
2022/12/09 13:14:24;;;;;;;4.17;3.40;;;2.20;97.30;;;;;;5047855;28;20442;-90
2022/12/09 13:16:51;;;;;;;7.60;4.67;;;2.20;97.30;;;;;;5024956;28;20465;-90
2022/12/09 13:19:42;;;;;;;8.57;2.67;;;2.10;97.30;;;;;;5017201;28;20990;-90
2022/12/09 13:22:28;;;;;;;4.50;2.70;;;2.10;97.30;;;;;;5021804;28;20407;-90
2022/12/09 13:25:16;;;;;;;3.50;2.40;;;2.10;97.30;;;;;;5014833;28;20469;-90
2022/12/09 13:27:52;;;;;;;4.60;3.23;;;2.10;97.30;;;;;;5051232;28;20422;-91
2022/12/09 13:30:25;;;;;;;1.00;0.90;;;2.20;97.30;;;;;;5034633;28;20417;-91
2022/12/09 13:33:30;;;;;;;9.20;3.70;;;2.10;97.30;;;;;;5031670;28;20423;-91
2022/12/09 13:36:14;;;;;;;3.07;2.90;;;2.10;97.30;;;;;;5028282;28;20442;-91
2022/12/09 13:38:41;;;;;;;2.90;2.27;;;2.10;97.30;;;;;;5024334;28;20466;-91
2022/12/09 13:41:25;;;;;;;3.53;3.33;;;2.10;97.30;;;;;;5034196;28;20426;-90
2022/12/09 13:43:56;;;;;;;1.03;0.97;;;2.10;97.30;;;;;;5021128;28;20997;-91
2022/12/09 13:46:26;;;;;;;1.87;1.77;;;2.10;97.30;;;;;;5034805;28;20461;-91
2022/12/09 13:48:53;;;;;;;7.00;5.07;;;2.10;97.30;;;;;;5028287;28;20486;-91
2022/12/09 13:51:21;;;;;;;3.53;3.33;;;2.10;97.30;;;;;;5019406;28;20447;-90
2022/12/09 13:53:51;;;;;;;3.67;2.17;;;2.10;97.30;;;;;;5042244;28;20465;-94
2022/12/09 13:56:42;;;;;;;2.83;2.23;;;2.10;97.30;;;;;;5049517;28;20515;-96
2022/12/09 13:59:52;;;;;;;9.43;3.20;;;2.10;97.30;;;;;;5045235;28;20430;-90
2022/12/09 14:06:12;;;;;;;;;;;;;;;;;;;;;
2022/12/09 14:12:53;;;;;;;1.90;1.70;;;2.00;97.30;;;;;;4893975;29;20448;-91
2022/12/09 14:29:42;;;;;;;1.57;1.53;;;2.10;97.30;;;;;;5190266;23;20996;-91
2022/12/09 14:32:52;;;;;;;7.10;2.97;;;2.10;97.30;;;;;;4926657;29;20943;-91
2022/12/09 14:38:29;;;;;;;7.30;3.63;;;2.00;97.30;;;;;;5044768;28;20474;-92
2022/12/09 14:41:19;;;;;;;1.87;1.77;;;1.90;97.30;;;;;;5003308;28;20436;-92
2022/12/09 14:43:56;;;;;;;24.07;4.17;;;2.00;97.30;;;;;;5050791;28;20454;-91
2022/12/09 14:46:29;;;;;;;10.83;3.20;;;2.00;97.30;;;;;;5030824;28;21285;-90
2022/12/09 14:49:18;;;;;;;7.23;5.70;;;1.90;97.30;;;;;;5049381;28;20767;-90
2022/12/09 14:51:53;;;;;;;7.70;3.00;;;1.90;97.30;;;;;;5028025;28;20426;-89
2022/12/09 14:54:33;;;;;;;6.73;4.20;;;1.90;97.30;;;;;;5034264;28;20467;-90
2022/12/09 14:57:03;;;;;;;3.20;3.00;;;1.90;97.30;;;;;;5028763;28;20427;-93
2022/12/09 14:59:30;;;;;;;5.83;5.30;;;1.90;97.30;;;;;;5036278;28;20954;-92
2022/12/09 15:01:59;;;;;;;5.03;3.70;;;1.90;97.30;;;;;;5036109;28;20442;-90
2022/12/09 15:04:32;;;;;;;3.60;3.00;;;1.90;97.30;;;;;;5042583;23;20535;-89
2022/12/09 15:07:19;;;;;;;5.70;4.20;;;1.90;97.30;;;;;;4967859;28;20519;-89
2022/12/09 15:09:50;;;;;;;7.87;2.77;;;1.90;97.30;;;;;;4972010;28;20512;-89
2022/12/09 15:12:16;;;;;;;2.37;2.17;;;1.90;97.30;;;;;;4984159;28;20982;-89
2022/12/09 15:14:45;;;;;;;6.00;3.97;;;1.90;97.30;;;;;;5026059;23;21251;-89
2022/12/09 15:17:23;;;;;;;2.73;2.53;;;1.90;97.30;;;;;;5000281;28;20425;-89
2022/12/09 15:19:48;;;;;;;3.20;2.03;;;1.90;97.30;;;;;;5008331;28;20817;-89
2022/12/09 15:22:22;;;;;;;4.50;2.73;;;1.90;97.30;;;;;;4999088;28;20431;-89
2022/12/09 15:24:49;;;;;;;3.37;3.17;;;1.80;97.30;;;;;;5000186;28;20208;-88
2022/12/09 15:27:18;;;;;;;5.10;4.80;;;1.80;97.30;;;;;;4998837;28;21000;-88
2022/12/09 15:29:43;;;;;;;4.40;3.83;;;1.70;97.30;;;;;;5018846;28;20412;-89
2022/12/09 15:32:21;;;;;;;8.67;3.27;;;1.70;97.30;;;;;;4995773;28;20978;-89
2022/12/09 15:34:47;;;;;;;3.23;3.03;;;1.70;97.30;;;;;;4992865;28;20192;-89
2022/12/09 15:37:14;;;;;;;4.87;3.40;;;1.70;97.30;;;;;;5001046;28;20514;-90
2022/12/09 15:40:01;;;;;;;2.70;2.13;;;1.70;97.30;;;;;;5014681;28;20178;-89
2022/12/09 15:42:30;;;;;;;5.63;4.10;;;1.70;97.30;;;;;;4996927;28;20423;-90
2022/12/09 15:45:14;;;;;;;2.77;2.57;;;1.70;97.30;;;;;;4992934;28;20456;-89